LFLB 240430Z AUTO 17003KT 4400 0350 R18/2400D R36/3200D BCFG NSC 03/03 Q1027 TEMPO 2000 BR

ElémentsDécodage
LFLB Station météo située sur l'aérodrome de CHAMBERY Aix-les-Bains
240430Z émis le 24 du mois à 04h30 UTC
AUTO Bulletin édité par un automate
17003KT vent du 170°, 03 noeuds
4400 visibilité horizontale de 4400 mètres
0350 visibilité horizontale de 350 mètres
R18/2400D portée visuelle de piste
piste 18, 2400 mètres, en baisse
R36/3200D portée visuelle de piste
piste 36, 3200 mètres, en baisse
BCFG bancs de brouillard
NSC pas de nuage significatif (pas de nuage <5000ft, pas de CB)
03/03 température 03°C, point de rosée 03°C
 soit une humidité relative de 100%
Q1027 la pression au niveau de la mer (QNH) est de 1027 hPa
TEMPO fluctuation temporaire prévue
2000 visibilité horizontale de 2000 mètres
BR brume